This is the latest recevied weather packets stored in our database for station/object 9M4RBN-3. If no packets are shown the sender has not sent any weather packets the latest 10 day(s).
| Time | Temp. | Humidity | Pressure | Rain* | Wind** | Luminosity | Snow |
|---|---|---|---|---|---|---|---|
| 1788157154 | 26.11° C | 48% | 1017.4 hPa | - | - | - | - |
| 1788156254 | 26.11° C | 48% | 1017.7 hPa | - | - | - | - |
| 1788155354 | 26.11° C | 48% | 1018.1 hPa | - | - | - | - |
| 1788154454 | 26.11° C | 48% | 1018.3 hPa | - | - | - | - |
| 1788153554 | 26.11° C | 48% | 1018.6 hPa | - | - | - | - |
| 1788152654 | 26.11° C | 47% | 1018.7 hPa | - | - | - | - |
| 1788151754 | 26.67° C | 47% | 1018.9 hPa | - | - | - | - |
| 1788150887 | 26.67° C | 49% | 1019 hPa | - | - | - | - |
| 1788150854 | 26.67° C | 49% | 1019 hPa | - | - | - | - |
| 1788149954 | 27.22° C | 55% | 1019.2 hPa | - | - | - | - |
| 1788149054 | 27.78° C | 66% | 1019.1 hPa | - | - | - | - |
| 1788148154 | 27.78° C | 66% | 1019.3 hPa | - | - | - | - |
| 1788147255 | 27.78° C | 65% | 1019.2 hPa | - | - | - | - |
| 1788146355 | 27.22° C | 66% | 1019.1 hPa | - | - | - | - |
| 1788145455 | 27.22° C | 65% | 1019.2 hPa | - | - | - | - |
| 1788144555 | 27.22° C | 65% | 1019.2 hPa | - | - | - | - |
| 1788143655 | 26.67° C | 66% | 1018.8 hPa | - | - | - | - |
| 1788142755 | 26.67° C | 65% | 1018.4 hPa | - | - | - | - |
| 1788141855 | 26.67° C | 64% | 1018.1 hPa | - | - | - | - |
| 1788140955 | 26.67° C | 65% | 1018.2 hPa | - | - | - | - |
| 1788140055 | 26.11° C | 64% | 1018.2 hPa | - | - | - | - |
| 1788139831 | 25° C | 60% | 1017.5 hPa | - | - | - | - |
| 1788139154 | 26.11° C | 65% | 1018.2 hPa | - | - | - | - |
| 1788138254 | 26.11° C | 65% | 1018 hPa | - | - | - | - |
| 1788137354 | 25.56° C | 65% | 1017.9 hPa | - | - | - | - |
* Rain since midnight (hover to see other rain measurements)
** Current wind speed in m/s (hover to see current wind gust speed)